Main page
METAR-TAF:

METAR-TAF

Airports :

University of Illinois Willard Airport

Champaign / Urbana, Illinois, United States

latitude: 40-01-56N, longitude: 088-16-24W, elevation: 751 ft

Current weather observation

The report was made 55 minutes ago, at 11:53 UTC
Calm wind
Temperature 63°F
Humidity 77%
Pressure 29.96 in. Hg
Visibility: 10 miles
Clear sky

METAR: KCMI 231153Z 00000KT 10SM CLR 17/13 A2996 RMK AO2 SLP140 T01670128 10167 20122 53001

Time: 07:48 (12:48 UTC)

Forecast

The report was made 1 hour and 28 minutes ago, at 11:20 UTC
Forecast valid from 23 at 12 UTC to 24 at 12 UTC
Wind 6 mph from variable directions
Visibility: 6 miles
Scattered clouds at a height of 18000 ft
From 23 at 1600 UTC
Wind 8 mph from the South/Southeast
Visibility: 6 miles
Scattered clouds at a height of 5000 ft

TAF: KCMI 231120Z 2312/2412 VRB05KT P6SM SCT180 FM231600 15007KT P6SM SCT050

Weather observations and forecasts of more than 4000 airports (METAR and TAF reports).

The available stations are represented by yellow and red dots on the map.

Hover mouse over dot to see the name of the station.

Then click to see weather observations and forecasts.

To change the map : click on the green buttons with a black cross to zoom in, on the green button with a dash to zoom out, or on the green arrows for adjacent maps.


METAR-TAF: